createdAt,value
2018-12-20T00:00:24.241Z,7.58
2018-12-20T00:02:57.098Z,5.65
2018-12-20T00:05:29.632Z,6.12
2018-12-20T00:08:02.471Z,7.00
2018-12-20T00:10:35.069Z,9.15
2018-12-20T00:13:08.318Z,7.53
2018-12-20T00:15:41.405Z,8.07
2018-12-20T00:18:13.685Z,8.13
2018-12-20T00:20:45.434Z,7.10
2018-12-20T00:23:17.122Z,9.27
2018-12-20T00:25:48.863Z,12.03
2018-12-20T00:28:20.580Z,8.80
2018-12-20T00:30:52.308Z,9.20
2018-12-20T00:33:24.876Z,7.53
2018-12-20T00:35:57.804Z,9.97
2018-12-20T00:38:30.202Z,8.90
2018-12-20T00:41:01.047Z,6.87
2018-12-20T00:43:33.278Z,7.90
2018-12-20T00:46:04.803Z,8.90
2018-12-20T00:48:35.758Z,9.67
2018-12-20T00:51:06.231Z,7.27
2018-12-20T00:53:36.545Z,8.20
2018-12-20T00:56:07.093Z,9.07
2018-12-20T00:58:37.541Z,6.53
2018-12-20T01:01:07.985Z,9.40
2018-12-20T01:03:38.358Z,7.23
2018-12-20T01:06:08.729Z,9.90
2018-12-20T01:08:39.429Z,6.42
2018-12-20T01:11:09.675Z,8.43
2018-12-20T01:13:40.278Z,10.27
2018-12-20T01:16:10.783Z,8.87
2018-12-20T01:18:41.194Z,8.73
2018-12-20T01:21:12.148Z,8.90
2018-12-20T01:23:42.578Z,9.80
2018-12-20T01:26:12.964Z,8.73
2018-12-20T01:28:43.376Z,8.60
2018-12-20T01:31:13.688Z,11.37
2018-12-20T01:33:43.905Z,8.03
2018-12-20T01:36:14.339Z,9.83
2018-12-20T01:38:44.840Z,8.60
2018-12-20T01:41:15.448Z,8.43
2018-12-20T01:43:45.799Z,7.80
2018-12-20T01:46:16.050Z,13.43
2018-12-20T01:48:46.694Z,7.60
2018-12-20T01:51:17.106Z,7.63
2018-12-20T01:53:47.743Z,7.57
2018-12-20T01:56:18.622Z,10.72
2018-12-20T01:58:48.903Z,10.20
2018-12-20T02:01:19.367Z,8.33
2018-12-20T02:03:50.263Z,6.97
2018-12-20T02:06:20.929Z,8.53
2018-12-20T02:08:51.896Z,5.97
2018-12-20T02:11:22.054Z,6.00
2018-12-20T02:13:52.957Z,6.33
2018-12-20T02:16:23.727Z,6.97
2018-12-20T02:18:54.813Z,7.58
2018-12-20T02:21:25.967Z,6.72
2018-12-20T02:23:56.994Z,5.47
2018-12-20T02:26:27.969Z,8.58
2018-12-20T02:28:58.948Z,6.40
2018-12-20T02:31:29.857Z,10.90
2018-12-20T02:34:00.025Z,8.03
2018-12-20T02:36:31.329Z,5.87
2018-12-20T02:39:02.460Z,7.05
2018-12-20T02:41:33.549Z,5.50
2018-12-20T02:44:04.014Z,6.20
2018-12-20T02:46:35.023Z,5.65
2018-12-20T02:49:06.084Z,5.67
2018-12-20T02:51:36.966Z,3.87
2018-12-20T02:54:08.040Z,5.80
2018-12-20T02:56:39.076Z,7.80
2018-12-20T02:59:10.007Z,5.85
2018-12-20T03:01:40.724Z,5.70
2018-12-20T03:04:11.640Z,6.30
2018-12-20T03:06:42.657Z,6.87
2018-12-20T03:09:13.419Z,4.60
2018-12-20T03:11:44.471Z,6.33
2018-12-20T03:14:15.376Z,5.40
2018-12-20T03:16:46.290Z,7.35
2018-12-20T03:19:17.259Z,7.12
2018-12-20T03:21:47.937Z,9.35
2018-12-20T03:24:18.721Z,5.60
2018-12-20T03:26:49.719Z,5.12
2018-12-20T03:29:20.767Z,4.80
2018-12-20T03:31:51.827Z,6.60
2018-12-20T03:34:22.984Z,4.37
2018-12-20T03:36:53.851Z,4.50
2018-12-20T03:39:24.766Z,4.03
2018-12-20T03:41:55.436Z,4.40
2018-12-20T03:44:26.133Z,3.37
2018-12-20T03:46:56.981Z,6.05
2018-12-20T03:49:27.966Z,3.60
2018-12-20T03:51:59.198Z,4.00
2018-12-20T03:54:30.245Z,3.00
2018-12-20T03:57:01.148Z,5.75
2018-12-20T03:59:31.905Z,4.75
2018-12-20T04:02:02.781Z,3.95
2018-12-20T04:04:34.048Z,5.22
2018-12-20T04:07:05.263Z,5.55
2018-12-20T04:09:36.218Z,5.03
2018-12-20T04:12:07.136Z,7.30
2018-12-20T04:14:38.171Z,4.05
2018-12-20T04:17:08.845Z,4.12
2018-12-20T04:19:39.571Z,7.90
2018-12-20T04:22:10.312Z,4.22
2018-12-20T04:24:41.211Z,2.35
2018-12-20T04:27:12.116Z,3.45
2018-12-20T04:29:43.264Z,3.20
2018-12-20T04:32:14.291Z,3.15
2018-12-20T04:34:45.346Z,3.65
2018-12-20T04:37:16.636Z,4.97
2018-12-20T04:39:47.754Z,5.62
2018-12-20T04:42:19.017Z,2.70
2018-12-20T04:44:49.985Z,3.27
2018-12-20T04:47:20.963Z,5.10
2018-12-20T04:49:51.852Z,5.20
2018-12-20T04:52:22.984Z,4.80
2018-12-20T04:54:54.205Z,3.20
2018-12-20T04:57:25.084Z,2.77
2018-12-20T04:59:55.930Z,3.17
2018-12-20T05:02:26.926Z,2.58
2018-12-20T05:04:57.829Z,2.75
2018-12-20T05:07:28.523Z,2.85
2018-12-20T05:09:59.517Z,2.87
2018-12-20T05:12:30.392Z,2.92
2018-12-20T05:15:01.299Z,3.83
2018-12-20T05:17:32.244Z,5.15
2018-12-20T05:20:03.068Z,3.77
2018-12-20T05:22:34.113Z,4.03
2018-12-20T05:25:05.707Z,2.10
2018-12-20T05:27:36.731Z,3.35
2018-12-20T05:30:08.735Z,2.45
2018-12-20T05:32:39.739Z,1.55
2018-12-20T05:35:10.670Z,1.92
2018-12-20T05:37:41.703Z,2.22
2018-12-20T05:40:12.755Z,1.85
2018-12-20T05:42:44.006Z,1.30
2018-12-20T05:45:15.200Z,1.57
2018-12-20T05:47:46.309Z,4.47
2018-12-20T05:50:17.205Z,1.60
2018-12-20T05:52:47.907Z,1.40
2018-12-20T05:55:19.039Z,1.90
2018-12-20T05:57:50.048Z,1.45
2018-12-20T06:00:20.712Z,1.67
2018-12-20T06:02:51.408Z,1.47
2018-12-20T06:05:22.137Z,0.98
2018-12-20T06:07:53.223Z,1.40
2018-12-20T06:10:24.493Z,1.20
2018-12-20T06:12:55.803Z,0.93
2018-12-20T06:15:26.752Z,0.75
2018-12-20T06:17:57.651Z,0.80
2018-12-20T06:20:28.579Z,1.25
2018-12-20T06:22:59.569Z,2.45
2018-12-20T06:25:30.237Z,2.95
2018-12-20T06:28:00.932Z,1.00
2018-12-20T06:30:31.592Z,1.20
2018-12-20T06:33:02.300Z,1.65
2018-12-20T06:35:33.001Z,2.95
2018-12-20T06:38:03.749Z,2.62
2018-12-20T06:40:34.432Z,1.27
2018-12-20T06:43:05.153Z,1.00
2018-12-20T06:45:35.846Z,1.57
2018-12-20T06:48:06.588Z,2.05
2018-12-20T06:50:37.289Z,2.10
2018-12-20T06:53:07.976Z,2.30
2018-12-20T06:55:38.660Z,1.62
2018-12-20T06:58:09.790Z,2.15
2018-12-20T07:00:40.469Z,1.27
2018-12-20T07:03:11.170Z,1.50
2018-12-20T07:05:41.866Z,1.90
2018-12-20T07:08:12.579Z,1.30
2018-12-20T07:10:43.273Z,1.27
2018-12-20T07:13:13.946Z,1.40
2018-12-20T07:15:44.641Z,0.90
2018-12-20T07:18:15.312Z,3.60
2018-12-20T07:20:46.005Z,0.70
2018-12-20T07:23:16.677Z,2.52
2018-12-20T07:25:47.375Z,1.17
2018-12-20T07:28:18.045Z,1.55
2018-12-20T07:30:48.753Z,1.55
2018-12-20T07:33:19.420Z,2.55
2018-12-20T07:35:50.358Z,2.15
2018-12-20T07:38:21.076Z,2.25
2018-12-20T07:40:51.778Z,2.00
2018-12-20T07:43:22.457Z,2.62
2018-12-20T07:45:53.157Z,1.25
2018-12-20T07:48:31.883Z,1.57
2018-12-20T07:50:56.517Z,2.62
2018-12-20T07:53:27.193Z,2.55
2018-12-20T07:55:57.884Z,2.20
2018-12-20T07:58:28.542Z,1.35
2018-12-20T08:00:59.246Z,2.50
2018-12-20T08:03:29.918Z,1.50
2018-12-20T08:06:00.624Z,3.77
2018-12-20T08:08:31.549Z,2.47
2018-12-20T08:11:02.261Z,1.75
2018-12-20T08:13:32.937Z,3.50
2018-12-20T08:16:03.646Z,3.87
2018-12-20T08:18:34.319Z,3.27
2018-12-20T08:21:05.132Z,3.70
2018-12-20T08:23:35.797Z,3.40
2018-12-20T08:26:06.504Z,3.37
2018-12-20T08:28:37.182Z,3.90
2018-12-20T08:31:07.927Z,1.87
2018-12-20T08:33:38.606Z,2.37
2018-12-20T08:36:09.301Z,2.65
2018-12-20T08:38:39.996Z,2.87
2018-12-20T08:41:10.700Z,3.33
2018-12-20T08:43:41.369Z,3.85
2018-12-20T08:46:12.080Z,1.98
2018-12-20T08:48:42.754Z,1.47
2018-12-20T08:51:13.452Z,3.67
2018-12-20T08:53:44.124Z,3.15
2018-12-20T08:56:14.834Z,3.15
2018-12-20T08:58:45.505Z,2.15
2018-12-20T09:01:16.249Z,2.92
2018-12-20T09:03:46.947Z,2.27
2018-12-20T09:06:17.668Z,4.35
2018-12-20T09:08:48.396Z,3.95
2018-12-20T09:11:19.146Z,3.83
2018-12-20T09:13:49.840Z,4.25
2018-12-20T09:16:20.541Z,1.98
2018-12-20T09:18:51.335Z,1.50
2018-12-20T09:21:22.044Z,6.92
2018-12-20T09:23:52.754Z,2.55
2018-12-20T09:26:23.669Z,5.25
2018-12-20T09:28:54.379Z,4.10
2018-12-20T09:31:25.090Z,1.50
2018-12-20T09:33:56.004Z,1.47
2018-12-20T09:36:27.039Z,1.70
2018-12-20T09:38:57.725Z,2.75
2018-12-20T09:41:28.402Z,1.92
2018-12-20T09:43:59.097Z,3.15
2018-12-20T09:46:29.783Z,1.77
2018-12-20T09:49:00.482Z,4.80
2018-12-20T09:51:31.166Z,3.27
2018-12-20T09:54:01.877Z,2.30
2018-12-20T09:56:32.553Z,1.65
2018-12-20T09:59:03.250Z,4.12
2018-12-20T10:01:33.930Z,3.20
2018-12-20T10:04:04.665Z,1.22
2018-12-20T10:06:35.342Z,1.92
2018-12-20T10:09:07.128Z,3.15
2018-12-20T10:11:37.792Z,1.92
2018-12-20T10:14:08.494Z,1.77
2018-12-20T10:16:39.238Z,1.75
2018-12-20T10:19:09.947Z,1.50
2018-12-20T10:21:40.622Z,1.00
2018-12-20T10:24:11.338Z,4.05
2018-12-20T10:26:42.017Z,3.05
2018-12-20T10:29:12.719Z,1.95
2018-12-20T10:31:43.395Z,2.10
2018-12-20T10:34:14.164Z,1.62
2018-12-20T10:36:44.854Z,1.50
2018-12-20T10:39:15.574Z,2.42
2018-12-20T10:41:46.269Z,0.78
2018-12-20T10:44:16.928Z,3.62
2018-12-20T10:46:47.646Z,1.52
2018-12-20T10:49:18.549Z,2.15
2018-12-20T10:51:49.241Z,0.93
2018-12-20T10:54:19.901Z,1.27
2018-12-20T10:56:50.602Z,3.72
2018-12-20T10:59:21.505Z,3.37
2018-12-20T11:01:53.946Z,1.65
2018-12-20T11:04:27.478Z,1.32
2018-12-20T11:07:03.562Z,3.30
2018-12-20T11:09:39.743Z,1.12
2018-12-20T11:12:23.765Z,1.10
2018-12-20T11:14:55.029Z,2.37
2018-12-20T11:17:25.725Z,1.37
2018-12-20T11:19:56.403Z,3.02
2018-12-20T11:22:27.141Z,3.52
2018-12-20T11:24:58.934Z,3.90
2018-12-20T11:27:29.893Z,1.15
2018-12-20T11:30:00.544Z,3.35
2018-12-20T11:32:31.318Z,4.08
2018-12-20T11:35:02.019Z,2.10
2018-12-20T11:37:32.678Z,2.80
2018-12-20T11:40:03.656Z,2.10
2018-12-20T11:42:34.316Z,1.47
2018-12-20T11:45:05.792Z,2.33
2018-12-20T11:47:36.448Z,0.90
2018-12-20T11:50:08.717Z,1.47
2018-12-20T11:52:42.470Z,2.75
2018-12-20T11:55:12.040Z,0.88
2018-12-20T11:57:42.713Z,2.15
2018-12-20T12:00:13.397Z,0.82
2018-12-20T12:02:44.067Z,1.00
2018-12-20T12:05:14.802Z,0.80
2018-12-20T12:07:45.465Z,1.65
2018-12-20T12:10:16.156Z,0.47
2018-12-20T12:12:46.824Z,2.02
2018-12-20T12:15:17.516Z,0.62
2018-12-20T12:17:54.252Z,1.00
2018-12-20T12:20:20.877Z,3.27
2018-12-20T12:22:51.668Z,2.35
2018-12-20T12:25:22.335Z,1.25
2018-12-20T12:27:53.012Z,1.22
2018-12-20T12:30:23.686Z,1.30
2018-12-20T12:32:54.374Z,2.98
2018-12-20T12:35:25.151Z,1.90
2018-12-20T12:37:55.848Z,1.62
2018-12-20T12:40:27.395Z,1.40
2018-12-20T12:42:58.329Z,1.12
2018-12-20T12:45:29.024Z,3.42
2018-12-20T12:48:03.696Z,2.80
2018-12-20T12:50:32.468Z,1.82
2018-12-20T12:53:03.172Z,1.65
2018-12-20T12:55:33.833Z,1.15
2018-12-20T12:58:05.151Z,2.83
2018-12-20T13:00:36.216Z,2.22
2018-12-20T13:03:07.155Z,3.92
2018-12-20T13:05:37.841Z,1.85
2018-12-20T13:08:08.509Z,2.40
2018-12-20T13:10:39.258Z,2.20
2018-12-20T13:13:09.975Z,1.70
2018-12-20T13:15:40.673Z,3.92
2018-12-20T13:18:13.896Z,4.65
2018-12-20T13:20:44.020Z,2.50
2018-12-20T13:23:14.784Z,3.15
2018-12-20T13:25:45.497Z,2.17
2018-12-20T13:28:16.185Z,4.35
2018-12-20T13:30:46.895Z,2.62
2018-12-20T13:33:17.870Z,6.10
2018-12-20T13:35:48.683Z,3.95
2018-12-20T13:38:19.385Z,4.17
2018-12-20T13:40:50.294Z,2.17
2018-12-20T13:43:20.980Z,2.60
2018-12-20T13:45:51.656Z,4.25
2018-12-20T13:48:22.623Z,2.25
2018-12-20T13:50:53.600Z,2.72
2018-12-20T13:53:24.299Z,2.15
2018-12-20T13:55:54.969Z,2.25
2018-12-20T13:58:25.660Z,3.65
2018-12-20T14:00:56.329Z,2.12
2018-12-20T14:03:27.028Z,1.67
2018-12-20T14:05:58.009Z,2.12
2018-12-20T14:08:28.763Z,4.00
2018-12-20T14:10:59.448Z,3.08
2018-12-20T14:13:30.142Z,2.85
2018-12-20T14:16:01.137Z,2.58
2018-12-20T14:18:32.033Z,2.72
2018-12-20T14:21:02.787Z,2.45
2018-12-20T14:23:33.477Z,4.55
2018-12-20T14:26:04.214Z,2.47
2018-12-20T14:28:34.886Z,5.12
2018-12-20T14:31:05.612Z,2.65
2018-12-20T14:33:36.314Z,5.08
2018-12-20T14:36:07.291Z,5.12
2018-12-20T14:38:37.981Z,3.90
2018-12-20T14:41:08.648Z,2.00
2018-12-20T14:43:39.349Z,2.67
2018-12-20T14:46:10.334Z,5.60
2018-12-20T14:48:41.342Z,2.25
2018-12-20T14:51:12.040Z,2.47
2018-12-20T14:53:42.742Z,3.45
2018-12-20T14:56:13.409Z,4.92
2018-12-20T14:58:44.148Z,2.90
2018-12-20T15:01:14.861Z,3.45
2018-12-20T15:03:45.577Z,2.85
2018-12-20T15:06:16.250Z,1.92
2018-12-20T15:08:46.956Z,7.15
2018-12-20T15:11:17.856Z,3.98
2018-12-20T15:13:48.566Z,5.75
2018-12-20T15:16:19.236Z,4.85
2018-12-20T15:18:49.931Z,4.20
2018-12-20T15:21:20.610Z,2.92
2018-12-20T15:23:51.314Z,6.85
2018-12-20T15:26:22.082Z,3.02
2018-12-20T15:28:53.018Z,2.27
2018-12-20T15:31:23.700Z,3.55
2018-12-20T15:33:54.396Z,3.67
2018-12-20T15:36:25.117Z,3.40
2018-12-20T15:38:55.804Z,3.30
2018-12-20T15:41:26.474Z,2.67
2018-12-20T15:43:57.169Z,4.00
2018-12-20T15:46:27.895Z,3.20
2018-12-20T15:49:03.405Z,6.42
2018-12-20T15:51:34.575Z,6.78
2018-12-20T15:54:05.269Z,4.87
2018-12-20T15:56:35.942Z,2.42
2018-12-20T15:59:06.704Z,4.50
2018-12-20T16:01:37.443Z,4.42
2018-12-20T16:04:08.146Z,2.62
2018-12-20T16:06:39.039Z,4.72
2018-12-20T16:09:09.721Z,4.05
2018-12-20T16:11:40.496Z,4.78
2018-12-20T16:14:11.165Z,4.78
2018-12-20T16:16:41.869Z,4.83
2018-12-20T16:19:12.545Z,6.40
2018-12-20T16:21:43.297Z,5.85
2018-12-20T16:24:14.120Z,3.37
2018-12-20T16:26:44.815Z,5.58
2018-12-20T16:29:15.530Z,4.45
2018-12-20T16:31:46.221Z,2.37
2018-12-20T16:34:16.938Z,4.42
2018-12-20T16:36:47.629Z,2.55
2018-12-20T16:39:18.319Z,4.75
2018-12-20T16:41:49.016Z,3.90
2018-12-20T16:44:19.737Z,2.65
2018-12-20T16:46:50.448Z,4.15
2018-12-20T16:49:21.344Z,4.67
2018-12-20T16:51:52.056Z,7.00
2018-12-20T16:54:22.780Z,3.12
2018-12-20T16:56:53.488Z,2.62
2018-12-20T16:59:24.164Z,2.77
2018-12-20T17:01:54.904Z,4.20
2018-12-20T17:04:25.578Z,4.80
2018-12-20T17:06:56.297Z,3.92
2018-12-20T17:09:27.229Z,5.12
2018-12-20T17:11:57.980Z,4.10
2018-12-20T17:14:28.655Z,5.47
2018-12-20T17:16:59.407Z,5.85
2018-12-20T17:19:30.092Z,8.25
2018-12-20T17:22:00.801Z,3.55
2018-12-20T17:24:31.553Z,6.53
2018-12-20T17:27:02.260Z,4.28
2018-12-20T17:29:33.030Z,5.78
2018-12-20T17:32:03.777Z,4.37
2018-12-20T17:34:34.487Z,2.87
2018-12-20T17:37:05.222Z,2.75
2018-12-20T17:39:35.944Z,3.80
2018-12-20T17:42:06.614Z,4.40
2018-12-20T17:44:37.595Z,3.35
2018-12-20T17:47:08.269Z,3.22
2018-12-20T17:49:38.961Z,4.05
2018-12-20T17:52:09.632Z,4.22
2018-12-20T17:54:40.325Z,3.08
2018-12-20T17:57:11.033Z,3.40
2018-12-20T17:59:41.774Z,5.25
2018-12-20T18:02:12.455Z,5.20
2018-12-20T18:04:43.159Z,4.95
2018-12-20T18:07:16.020Z,11.30
2018-12-20T18:09:46.496Z,4.90
2018-12-20T18:12:17.191Z,4.37
2018-12-20T18:14:47.968Z,3.92
2018-12-20T18:17:18.982Z,4.72
2018-12-20T18:19:49.693Z,4.53
2018-12-20T18:22:20.446Z,5.22
2018-12-20T18:24:51.145Z,4.75
2018-12-20T18:27:21.849Z,6.97
2018-12-20T18:29:52.605Z,5.08
2018-12-20T18:32:23.328Z,6.33
2018-12-20T18:34:54.035Z,8.48
2018-12-20T18:37:24.761Z,3.10
2018-12-20T18:39:55.476Z,3.17
2018-12-20T18:42:26.176Z,4.00
2018-12-20T18:44:56.875Z,3.35
2018-12-20T18:47:27.544Z,5.15
2018-12-20T18:49:58.353Z,4.97
2018-12-20T18:52:29.044Z,4.70
2018-12-20T18:54:59.772Z,6.40
2018-12-20T18:57:30.441Z,4.58
2018-12-20T19:00:01.147Z,4.03
2018-12-20T19:02:31.848Z,4.35
2018-12-20T19:05:02.594Z,3.77
2018-12-20T19:07:33.271Z,4.58
2018-12-20T19:10:04.762Z,4.78
2018-12-20T19:12:35.446Z,3.10
2018-12-20T19:15:07.424Z,2.40
2018-12-20T19:17:38.515Z,3.85
2018-12-20T19:20:15.976Z,4.62
2018-12-20T19:22:42.287Z,9.00
2018-12-20T19:25:12.969Z,3.90
2018-12-20T19:27:43.666Z,2.47
2018-12-20T19:30:14.337Z,6.30
2018-12-20T19:32:45.033Z,4.60
2018-12-20T19:35:15.702Z,4.37
2018-12-20T19:37:46.447Z,5.25
2018-12-20T19:40:17.188Z,4.62
2018-12-20T19:42:47.996Z,4.75
2018-12-20T19:45:18.628Z,5.25
2018-12-20T19:47:49.321Z,4.28
2018-12-20T19:50:21.858Z,6.80
2018-12-20T19:52:52.668Z,6.03
2018-12-20T19:55:23.373Z,4.70
2018-12-20T19:57:54.118Z,4.55
2018-12-20T20:00:24.810Z,5.00
2018-12-20T20:02:55.508Z,3.75
2018-12-20T20:05:26.218Z,5.30
2018-12-20T20:07:56.938Z,3.92
2018-12-20T20:10:27.637Z,2.98
2018-12-20T20:12:58.342Z,4.67
2018-12-20T20:15:29.046Z,4.37
2018-12-20T20:17:59.747Z,4.15
2018-12-20T20:20:30.465Z,4.45
2018-12-20T20:23:01.153Z,4.58
2018-12-20T20:25:31.826Z,3.87
2018-12-20T20:28:02.539Z,3.62
2018-12-20T20:30:33.228Z,2.95
2018-12-20T20:33:03.956Z,4.25
2018-12-20T20:35:34.662Z,2.87
2018-12-20T20:38:05.384Z,3.85
2018-12-20T20:40:36.099Z,2.85
2018-12-20T20:43:06.796Z,4.50
2018-12-20T20:45:37.678Z,2.40
2018-12-20T20:48:08.581Z,4.28
2018-12-20T20:50:39.282Z,4.30
2018-12-20T20:53:09.979Z,6.50
2018-12-20T20:55:40.719Z,4.85
2018-12-20T20:58:11.592Z,6.85
2018-12-20T21:00:42.358Z,3.80
2018-12-20T21:03:13.088Z,3.35
2018-12-20T21:05:43.797Z,3.22
2018-12-20T21:08:14.483Z,5.62
2018-12-20T21:10:45.186Z,3.22
2018-12-20T21:13:15.906Z,3.85
2018-12-20T21:15:46.610Z,8.10
2018-12-20T21:18:17.304Z,7.25
2018-12-20T21:20:48.092Z,5.42
2018-12-20T21:23:18.771Z,4.62
2018-12-20T21:25:49.489Z,6.78
2018-12-20T21:28:20.171Z,6.40
2018-12-20T21:30:50.929Z,5.97
2018-12-20T21:33:21.701Z,4.42
2018-12-20T21:35:52.505Z,9.90
2018-12-20T21:38:23.181Z,5.85
2018-12-20T21:40:53.882Z,3.42
2018-12-20T21:43:24.553Z,5.03
2018-12-20T21:45:55.248Z,3.22
2018-12-20T21:48:25.921Z,3.47
2018-12-20T21:50:56.646Z,7.00
2018-12-20T21:53:27.556Z,4.60
2018-12-20T21:55:58.252Z,4.58
2018-12-20T21:58:28.925Z,3.05
2018-12-20T22:00:59.612Z,4.00
2018-12-20T22:03:30.298Z,5.95
2018-12-20T22:06:01.009Z,7.35
2018-12-20T22:08:31.788Z,4.00
2018-12-20T22:11:02.486Z,5.10
2018-12-20T22:13:33.173Z,4.42
2018-12-20T22:16:03.915Z,3.47
2018-12-20T22:18:34.587Z,3.70
2018-12-20T22:21:05.288Z,5.92
2018-12-20T22:23:35.988Z,4.62
2018-12-20T22:26:06.678Z,3.05
2018-12-20T22:28:37.382Z,2.50
2018-12-20T22:31:08.057Z,5.12
2018-12-20T22:33:38.761Z,6.67
2018-12-20T22:36:09.458Z,4.83
2018-12-20T22:38:40.169Z,3.20
2018-12-20T22:41:10.836Z,4.70
2018-12-20T22:43:41.541Z,5.22
2018-12-20T22:46:12.227Z,4.12
2018-12-20T22:48:42.916Z,3.85
2018-12-20T22:51:13.853Z,4.15
2018-12-20T22:53:44.733Z,2.75
2018-12-20T22:56:15.473Z,4.35
2018-12-20T22:58:46.206Z,5.30
2018-12-20T23:01:16.905Z,3.98
2018-12-20T23:03:47.573Z,2.42
2018-12-20T23:06:18.280Z,3.92
2018-12-20T23:08:48.957Z,3.62
2018-12-20T23:11:19.651Z,3.25
2018-12-20T23:13:50.325Z,3.37
2018-12-20T23:16:25.518Z,4.47
2018-12-20T23:18:56.255Z,5.22
2018-12-20T23:21:26.955Z,3.83
2018-12-20T23:23:57.700Z,2.62
2018-12-20T23:26:28.999Z,2.83
2018-12-20T23:29:00.349Z,6.55
2018-12-20T23:31:31.085Z,2.00
2018-12-20T23:34:01.989Z,3.40
2018-12-20T23:36:32.640Z,4.42
2018-12-20T23:39:04.137Z,2.62
2018-12-20T23:41:34.825Z,4.33
2018-12-20T23:44:05.746Z,4.12
2018-12-20T23:46:36.413Z,5.47
2018-12-20T23:49:07.109Z,2.30
2018-12-20T23:51:45.124Z,2.33
2018-12-20T23:54:10.510Z,3.60
2018-12-20T23:56:41.284Z,1.72
2018-12-20T23:59:12.335Z,4.22
